Flight Track Log - Related Links

Times and Time Zones

All times are in EDT time to prevent confusion due to time zone crossing. See the N177LF flight status page for this flight to view local times or setup timezone preferences in your user account.

Time Position Orientation Groundspeed Altitude Reporting Facility
EDT Latitude Longitude Course Direction KTS MPH feet Rate Location/Type
Sun 03:46:55 PM 41.7003 -81.4397 270° West 89 102 1,900  Level Cleveland Center
Sun 03:47:44 PM 41.7003 -81.4647 270° West 89 102 2,300 462 Climbing Cleveland Center
Sun 03:48:39 PM 41.7000 -81.4953 269° West 90 104 2,700 443 Climbing Cleveland Center
Sun 03:49:46 PM 41.7039 -81.5317 278° West 93 107 3,200 422 Climbing Cleveland Center
Sun 03:50:47 PM 41.7014 -81.5678 265° West 88 101 3,600 385 Climbing Cleveland Center
Sun 03:51:35 PM 41.6992 -81.5925 263° West 90 104 3,900 209 Climbing Cleveland Center
Sun 03:52:42 PM 41.7028 -81.6372 276° West 110 127 4,000 90 Climbing Cleveland Center
Sun 03:53:49 PM 41.7108 -81.6847 283° West 127 146 4,100  Climbing Cleveland Center
Sun 03:54:44 PM 41.7167 -81.7319 279° West 138 159 4,000 103 Descending Cleveland Center
Sun 03:55:45 PM 41.7264 -81.7767 286° West 130 150 4,300 393 Climbing Cleveland Center
Sun 03:56:46 PM 41.7344 -81.8186 284° West 114 131 4,800 446 Climbing Cleveland Center
Sun 03:57:46 PM 41.7381 -81.8631 276° West 109 125 5,200 397 Climbing Cleveland Center
Sun 03:58:47 PM 41.7397 -81.9022 273° West 110 127 5,600 393 Climbing Cleveland Center
Sun 03:59:48 PM 41.7433 -81.9439 277° West 109 125 6,000 261 Climbing Cleveland Center
Sun 04:00:42 PM 41.7389 -81.9828 261° West 113 130 6,100 52 Climbing Cleveland Center
Sun 04:01:43 PM 41.7403 -82.0303 272° West 134 154 6,100 -49 Level Cleveland Center
Sun 04:02:44 PM 41.7481 -82.0778 282° West 145 167 6,000 -148 Descending Cleveland Center
Sun 04:03:45 PM 41.7536 -82.1306 278° West 135 155 5,800 -103 Descending Cleveland Center
Sun 04:04:40 PM 41.7550 -82.1753 272° West 134 154 5,800 52 Level Cleveland Center
Sun 04:05:40 PM 41.7586 -82.2228 276° West 127 146 5,900 90 Climbing Cleveland Center
Sun 04:06:53 PM 41.7639 -82.2786 277° West 123 142 6,000 58 Climbing Cleveland Center
Sun 04:07:23 PM 41.7678 -82.3008 283° West 125 144 6,000  Level Cleveland Center
Sun 04:08:43 PM 41.7753 -82.3650 279° West 127 146 6,000  Level Cleveland Center
Sun 04:09:44 PM 41.7786 -82.4097 276° West 130 150 6,000 49 Level Cleveland Center
Sun 04:10:45 PM 41.7842 -82.4600 278° West 129 148 6,100 49 Climbing Cleveland Center
Sun 04:11:47 PM 41.7853 -82.5075 272° West 130 150 6,100  Level Cleveland Center
Sun 04:12:49 PM 41.7886 -82.5578 275° West 131 151 6,100 49 Level Cleveland Center
Sun 04:13:49 PM 41.7942 -82.6053 279° West 131 151 6,200 49 Climbing Cleveland Center
Sun 04:14:51 PM 41.7994 -82.6583 278° West 133 153 6,200  Level Cleveland Center
Sun 04:15:52 PM 41.8047 -82.7114 278° West 132 152 6,200  Level Cleveland Center
Sun 04:16:54 PM 41.8058 -82.7561 272° West 131 151 6,200 -49 Level Cleveland Center
Sun 04:17:55 PM 41.8111 -82.8092 278° West 137 158 6,100 -49 Descending Cleveland Center
Sun 04:18:56 PM 41.8144 -82.8594 275° West 136 157 6,100  Level Cleveland Center
Sun 04:19:58 PM 41.8194 -82.9125 277° West 135 155 6,100  Level Cleveland Center
Sun 04:21:05 PM 41.8247 -82.9683 277° West 134 154 6,100 -49 Level Cleveland Center
Sun 04:22:01 PM 41.8278 -83.0131 275° West 135 155 6,000 -52 Descending Cleveland Center
Sun 04:23:01 PM 41.8308 -83.0661 274° West 133 153 6,000  Level Cleveland Center
Sun 04:24:09 PM 41.8339 -83.1192 274° West 132 152 6,000  Level Cleveland Center
Sun 04:25:04 PM 41.8414 -83.1614 283° West 132 152 6,000 -51 Level Cleveland Center
Sun 04:26:06 PM 41.8444 -83.2117 275° West 135 155 5,900  Descending Cleveland Center
Sun 04:27:12 PM 41.8472 -83.2675 274° West 133 153 6,000 47 Climbing Cleveland Center
Sun 04:28:14 PM 41.8522 -83.3181 278° West 132 152 6,000 -49 Level Cleveland Center
Sun 04:29:15 PM 41.8553 -83.3683 275° West 134 154 5,900 -49 Descending Cleveland Center
Sun 04:30:16 PM 41.8603 -83.4186 278° West 136 157 5,900 49 Level Cleveland Center
Sun 04:31:18 PM 41.8631 -83.4689 274° West 132 152 6,000 49 Climbing Cleveland Center
Sun 04:32:19 PM 41.8661 -83.5219 274° West 131 151 6,000  Level Cleveland Center
Sun 04:34:08 PM 41.8775 -83.5994 281° West 132 152 6,000  Level Chicago Center
Sun 04:35:11 PM 41.8808 -83.6475 275° West 131 151 6,000  Level Chicago Center
Sun 04:36:13 PM 41.8856 -83.7053 276° West 130 150 6,000 48 Level Chicago Center
Sun 04:37:15 PM 41.8881 -83.7528 274° West 129 148 6,100 48 Climbing Chicago Center
Sun 04:38:17 PM 41.8917 -83.8014 276° West 130 150 6,100  Level Chicago Center
Sun 04:39:19 PM 41.8947 -83.8508 275° West 132 152 6,100  Level Chicago Center
Sun 04:40:21 PM 41.8992 -83.9000 277° West 132 152 6,100  Level Chicago Center
Sun 04:41:23 PM 41.9036 -83.9594 276° West 133 153 6,100  Level Chicago Center
Sun 04:42:25 PM 41.9067 -84.0083 275° West 133 153 6,100 48 Level Chicago Center
Sun 04:43:27 PM 41.9103 -84.0572 276° West 133 153 6,200 97 Climbing Chicago Center
Sun 04:44:29 PM 41.9133 -84.1047 275° West 131 151 6,300 194 Climbing Chicago Center
Sun 04:45:31 PM 41.9147 -84.1483 272° West 125 144 6,600 290 Climbing Chicago Center
Sun 04:46:33 PM 41.9181 -84.1878 276° West 116 133 6,900 339 Climbing Chicago Center
Sun 04:47:35 PM 41.9228 -84.2367 277° West 111 128 7,300 288 Climbing Chicago Center
Sun 04:48:38 PM 41.9236 -84.2767 272° West 109 125 7,500 240 Climbing Chicago Center
Sun 04:49:40 PM 41.9250 -84.3164 273° West 108 124 7,800 242 Climbing Chicago Center
Sun 04:50:42 PM 41.9278 -84.3589 275° West 112 129 8,000 145 Climbing Chicago Center
Sun 04:51:44 PM 41.9311 -84.4022 276° West 116 133 8,100 97 Climbing Chicago Center
Sun 04:52:46 PM 41.9347 -84.4481 276° West 122 140 8,200 48 Climbing Chicago Center
Sun 04:53:48 PM 41.9394 -84.5039 277° West 125 144 8,200  Level Chicago Center
Sun 04:54:50 PM 41.9425 -84.5522 275° West 129 148 8,200  Level Chicago Center
Sun 04:55:52 PM 41.9456 -84.6008 275° West 131 151 8,200  Level Chicago Center
Sun 04:56:54 PM 41.9486 -84.6506 275° West 133 153 8,200  Level Chicago Center
Sun 04:57:56 PM 41.9531 -84.6983 277° West 132 152 8,200  Level Chicago Center
Sun 04:58:58 PM 41.9564 -84.7572 274° West 132 152 8,200 -48 Level Chicago Center
Sun 05:00:00 PM 41.9600 -84.8050 276° West 131 151 8,100 -48 Descending Chicago Center
Sun 05:01:02 PM 41.9631 -84.8544 275° West 133 153 8,100  Level Chicago Center
Sun 05:02:04 PM 41.9661 -84.9036 275° West 133 153 8,100  Level Chicago Center
Sun 05:03:07 PM 41.9689 -84.9533 274° West 134 154 8,100  Level Chicago Center
Sun 05:04:09 PM 41.9722 -85.0025 275° West 134 154 8,100  Level Chicago Center
Sun 05:05:11 PM 41.9756 -85.0628 274° West 135 155 8,100 -48 Level Chicago Center
Sun 05:06:13 PM 41.9797 -85.1119 277° West 136 157 8,000  Descending Chicago Center
Sun 05:07:15 PM 41.9822 -85.1614 274° West 134 154 8,100  Climbing Chicago Center
Sun 05:08:17 PM 41.9850 -85.2103 274° West 133 153 8,000 -48 Descending Chicago Center
Sun 05:09:19 PM 41.9883 -85.2603 275° West 135 155 8,000  Level Chicago Center
Sun 05:10:21 PM 41.9917 -85.3186 274° West 132 152 8,000  Level Chicago Center
Sun 05:11:23 PM 41.9942 -85.3678 274° West 132 152 8,000  Level Chicago Center
Sun 05:12:25 PM 41.9975 -85.4158 275° West 131 151 8,000  Level Chicago Center
Sun 05:13:28 PM 42.0011 -85.4644 276° West 132 152 8,000  Level Chicago Center
Sun 05:14:30 PM 42.0022 -85.5128 272° West 131 151 8,000  Level Chicago Center
Sun 05:15:32 PM 42.0061 -85.5708 275° West 131 151 8,000  Level Chicago Center
Sun 05:16:34 PM 42.0094 -85.6192 275° West 131 151 8,000  Level Chicago Center
Sun 05:17:36 PM 42.0156 -85.6681 280° West 132 152 8,000  Level Chicago Center
Sun 05:18:38 PM 42.0231 -85.7158 282° West 132 152 8,000  Level Chicago Center
Sun 05:19:40 PM 42.0275 -85.7642 277° West 131 151 8,000  Level Chicago Center
Sun 05:20:42 PM 42.0344 -85.8131 281° West 133 153 8,000  Level Chicago Center
Sun 05:21:44 PM 42.0400 -85.8711 277° West 131 151 8,000 48 Level Chicago Center
Sun 05:22:46 PM 42.0456 -85.9186 279° West 130 150 8,100  Climbing Chicago Center
Sun 05:23:48 PM 42.0511 -85.9667 279° West 129 148 8,000  Descending Chicago Center
Sun 05:24:50 PM 42.0561 -86.0131 278° West 128 147 8,100  Climbing Chicago Center
Sun 05:25:53 PM 42.0619 -86.0597 280° West 127 146 8,000  Descending Chicago Center
Sun 05:26:55 PM 42.0683 -86.1164 279° West 128 147 8,100  Climbing Chicago Center
Sun 05:27:57 PM 42.0725 -86.1622 277° West 125 144 8,000 -48 Descending Chicago Center
Sun 05:28:59 PM 42.0783 -86.2097 279° West 127 146 8,000  Level Chicago Center
Sun 05:30:01 PM 42.0836 -86.2564 279° West 128 147 8,000  Level Chicago Center
Sun 05:31:03 PM 42.0894 -86.3056 279° West 131 151 8,000  Level Chicago Center
Sun 05:32:05 PM 42.0939 -86.3522 277° West 129 148 8,000 -145 Level Chicago Center
Sun 05:33:07 PM 42.1014 -86.4117 280° West 133 153 7,700 -387 Descending Chicago Center
Sun 05:34:09 PM 42.1069 -86.4622 278° West 136 157 7,200 -484 Descending Chicago Center
Sun 05:35:11 PM 42.1131 -86.5131 279° West 138 159 6,700 -484 Descending Chicago Center
Sun 05:36:13 PM 42.1181 -86.5642 278° West 137 158 6,200 -484 Descending Chicago Center
Sun 05:37:15 PM 42.1231 -86.6156 277° West 139 160 5,700 -480 Descending Chicago Center
Sun 05:38:18 PM 42.1283 -86.6664 278° West 139 160 5,200 -528 Descending Chicago Center
Sun 05:39:20 PM 42.1353 -86.7267 279° West 136 157 4,600 -484 Descending Chicago Center
Sun 05:40:22 PM 42.1400 -86.7772 277° West 136 157 4,200 -290 Descending Chicago Center
Sun 05:41:24 PM 42.1444 -86.8269 277° West 135 155 4,000 -97 Descending Chicago Center
Sun 05:42:26 PM 42.1497 -86.8736 279° West 129 148 4,000  Level Chicago Center
Sun 05:43:28 PM 42.1558 -86.9217 280° West 129 148 4,000  Level Chicago Center
Sun 05:44:30 PM 42.1603 -86.9775 276° West 126 145 4,000  Level Chicago Center
Sun 05:45:32 PM 42.1625 -87.0250 274° West 128 147 4,000  Level Chicago Center
Sun 05:46:34 PM 42.1661 -87.0664 277° West 124 143 4,000 -48 Level Chicago Center
Sun 05:47:36 PM 42.1700 -87.1122 277° West 123 142 3,900  Descending Chicago Center
Sun 05:48:38 PM 42.1728 -87.1672 274° West 124 143 4,000 48 Climbing Chicago Center
Sun 05:49:40 PM 42.1758 -87.2128 275° West 123 142 4,000  Level Chicago Center
Sun 05:50:42 PM 42.1775 -87.2572 273° West 121 139 4,000 -96 Level Chicago Center
Sun 05:51:45 PM 42.1806 -87.3031 275° West 123 142 3,800 -384 Descending Chicago Center
Sun 05:52:47 PM 42.1842 -87.3592 275° West 124 143 3,200 -387 Descending Chicago Center
Sun 05:53:49 PM 42.1875 -87.4075 275° West 128 147 3,000 -97 Descending Chicago Center
Sun 05:54:51 PM 42.1908 -87.4558 275° West 129 148 3,000  Level Chicago Center
Sun 05:55:53 PM 42.1936 -87.5033 275° West 128 147 3,000  Level Chicago Center
Sun 05:56:55 PM 42.1967 -87.5483 275° West 125 144 3,000  Level Chicago Center
Sun 05:57:57 PM 42.1997 -87.6042 274° West 125 144 3,000 -97 Level Chicago Center
Sun 05:58:59 PM 42.2008 -87.6500 272° West 124 143 2,800 -194 Descending Chicago Center
Sun 06:00:01 PM 42.2025 -87.6964 273° West 124 143 2,600 -290 Descending Chicago Center
Sun 06:01:03 PM 42.2031 -87.7439 271° West 126 145 2,200 -339 Descending Chicago Center
Sun 06:02:05 PM 42.2039 -87.7956 271° West 128 147 1,900 -194 Descending Chicago Center
Sun 06:03:07 PM 42.1967 -87.8464 259° West 126 145 1,800 -48 Descending Chicago Center
Sun 06:04:10 PM 42.1942 -87.8853 265° West 125 144 1,800 -155 Level Chicago Center
Sun 06:06:21 PM 42.1500 -87.9167 208° Southwest 100 115 1,300 -283 Descending Chicago TRACON
Sun 06:07:21 PM 42.1333 -87.9167 180° South 86 99 900 -400 Descending Chicago TRACON

Login

Don't have an account? Register now (free) for customized features, flight alerts, and more!